Terminal Aerodrome Forecast
Issued by NWS

Home | Current Version | Previous Version | Text Only | Print | Product List | Glossary On
Versions: 1 2 3 4 5 6 7 8 9 10 11 12 13 14 15
000
FTUS42 KMHX 241700
TAFISO
TAF
KISO 241720Z 2418/2518 19009KT P6SM OVC015
     FM241900 21008KT P6SM VCSH SCT010 BKN020
     FM250100 20005KT 5SM BR OVC010
     FM250700 19003KT 3SM BR OVC010
     FM251300 27007KT P6SM VCSH OVC020
     FM251500 32009KT P6SM VCSH OVC010
      AMD LTD TO CLD VIS AND WIND=

USA.gov is the U.S. government's official web portal to all federal, state and local government web resources and services.